createdAt,value
2018-12-16T00:01:36.345Z,30.70
2018-12-16T00:04:03.474Z,30.80
2018-12-16T00:06:30.512Z,30.80
2018-12-16T00:08:57.552Z,30.70
2018-12-16T00:11:24.557Z,30.70
2018-12-16T00:13:52.052Z,30.80
2018-12-16T00:16:19.612Z,30.70
2018-12-16T00:18:47.059Z,30.50
2018-12-16T00:21:14.131Z,30.60
2018-12-16T00:23:41.150Z,30.50
2018-12-16T00:26:08.206Z,30.50
2018-12-16T00:28:38.081Z,30.70
2018-12-16T00:31:05.269Z,30.30
2018-12-16T00:33:32.282Z,30.40
2018-12-16T00:35:59.297Z,30.50
2018-12-16T00:38:26.336Z,30.00
2018-12-16T00:40:53.358Z,30.40
2018-12-16T00:43:20.374Z,30.40
2018-12-16T00:45:47.548Z,30.30
2018-12-16T00:48:14.565Z,30.10
2018-12-16T00:50:41.641Z,30.20
2018-12-16T00:53:09.144Z,30.10
2018-12-16T00:55:36.166Z,30.20
2018-12-16T00:58:03.228Z,30.10
2018-12-16T01:00:30.235Z,30.30
2018-12-16T01:02:57.250Z,30.00
2018-12-16T01:05:24.312Z,29.70
2018-12-16T01:07:51.406Z,30.00
2018-12-16T01:10:18.520Z,30.00
2018-12-16T01:12:45.564Z,30.00
2018-12-16T01:15:12.684Z,30.00
2018-12-16T01:17:39.733Z,30.00
2018-12-16T01:20:06.830Z,29.90
2018-12-16T01:22:33.862Z,29.90
2018-12-16T01:25:00.919Z,29.90
2018-12-16T01:27:27.994Z,30.60
2018-12-16T01:29:55.032Z,30.20
2018-12-16T01:32:22.175Z,29.90
2018-12-16T01:34:49.241Z,29.80
2018-12-16T01:37:16.271Z,30.30
2018-12-16T01:39:43.412Z,29.80
2018-12-16T01:42:11.728Z,29.70
2018-12-16T01:44:38.754Z,29.80
2018-12-16T01:47:05.812Z,29.90
2018-12-16T01:49:32.870Z,29.80
2018-12-16T01:51:59.931Z,29.90
2018-12-16T01:54:27.059Z,29.80
2018-12-16T01:56:54.082Z,30.60
2018-12-16T01:59:21.133Z,29.90
2018-12-16T02:01:53.874Z,29.70
2018-12-16T02:04:20.970Z,29.80
2018-12-16T02:06:47.986Z,29.90
2018-12-16T02:09:15.330Z,29.70
2018-12-16T02:11:42.410Z,29.70
2018-12-16T02:14:09.447Z,29.70
2018-12-16T02:16:36.604Z,29.70
2018-12-16T02:19:03.606Z,30.40
2018-12-16T02:21:30.637Z,29.70
2018-12-16T02:23:57.721Z,29.90
2018-12-16T02:26:24.769Z,29.70
2018-12-16T02:28:51.844Z,29.70
2018-12-16T02:31:18.886Z,29.60
2018-12-16T02:33:45.970Z,29.70
2018-12-16T02:36:13.008Z,29.70
2018-12-16T02:38:40.088Z,30.00
2018-12-16T02:41:07.175Z,29.50
2018-12-16T02:43:34.325Z,29.60
2018-12-16T02:46:01.372Z,29.50
2018-12-16T02:48:28.406Z,29.40
2018-12-16T02:50:55.425Z,29.60
2018-12-16T02:53:22.487Z,29.60
2018-12-16T02:55:49.559Z,29.50
2018-12-16T02:58:16.639Z,29.50
2018-12-16T03:00:43.732Z,29.20
2018-12-16T03:03:10.841Z,29.30
2018-12-16T03:05:37.982Z,29.30
2018-12-16T03:08:05.027Z,29.50
2018-12-16T03:10:32.081Z,29.30
2018-12-16T03:12:59.128Z,29.30
2018-12-16T03:15:26.276Z,29.30
2018-12-16T03:17:53.316Z,29.40
2018-12-16T03:20:20.367Z,29.30
2018-12-16T03:22:47.373Z,29.20
2018-12-16T03:25:14.446Z,29.30
2018-12-16T03:27:41.503Z,29.30
2018-12-16T03:30:08.987Z,29.30
2018-12-16T03:32:36.115Z,29.20
2018-12-16T03:35:03.261Z,29.20
2018-12-16T03:37:30.312Z,29.20
2018-12-16T03:39:57.336Z,29.20
2018-12-16T03:42:24.513Z,29.10
2018-12-16T03:44:51.660Z,29.10
2018-12-16T03:47:18.796Z,29.20
2018-12-16T03:49:45.861Z,29.10
2018-12-16T03:52:12.892Z,29.20
2018-12-16T03:54:39.947Z,29.20
2018-12-16T03:57:07.105Z,29.10
2018-12-16T03:59:34.139Z,29.10
2018-12-16T04:02:01.319Z,29.10
2018-12-16T04:04:28.441Z,29.30
2018-12-16T04:06:55.491Z,29.30
2018-12-16T04:09:22.497Z,29.40
2018-12-16T04:11:49.560Z,29.30
2018-12-16T04:14:16.641Z,29.20
2018-12-16T04:16:43.810Z,29.30
2018-12-16T04:19:10.896Z,29.30
2018-12-16T04:21:38.079Z,29.10
2018-12-16T04:24:05.072Z,29.10
2018-12-16T04:26:32.223Z,29.30
2018-12-16T04:28:59.303Z,29.30
2018-12-16T04:31:26.469Z,29.40
2018-12-16T04:33:53.637Z,29.10
2018-12-16T04:36:20.690Z,28.90
2018-12-16T04:38:47.688Z,29.00
2018-12-16T04:41:14.757Z,29.00
2018-12-16T04:43:41.764Z,29.60
2018-12-16T04:46:08.820Z,29.10
2018-12-16T04:48:35.946Z,29.10
2018-12-16T04:51:02.946Z,29.10
2018-12-16T04:53:35.861Z,29.10
2018-12-16T04:55:59.191Z,29.10
2018-12-16T05:01:21.930Z,29.10
2018-12-16T05:03:49.011Z,29.00
2018-12-16T05:06:16.055Z,29.10
2018-12-16T05:08:43.086Z,28.90
2018-12-16T05:11:10.120Z,29.10
2018-12-16T05:13:37.212Z,29.50
2018-12-16T05:16:04.274Z,28.90
2018-12-16T05:18:31.408Z,28.90
2018-12-16T05:20:59.559Z,29.00
2018-12-16T05:23:26.596Z,29.00
2018-12-16T05:25:53.665Z,28.80
2018-12-16T05:28:20.717Z,29.00
2018-12-16T05:30:47.712Z,29.00
2018-12-16T05:33:14.854Z,29.00
2018-12-16T05:35:41.956Z,28.90
2018-12-16T05:38:08.992Z,28.90
2018-12-16T05:40:36.065Z,28.90
2018-12-16T05:43:03.213Z,29.30
2018-12-16T05:45:30.206Z,28.80
2018-12-16T05:47:57.306Z,28.80
2018-12-16T05:50:24.652Z,28.90
2018-12-16T05:52:51.640Z,28.90
2018-12-16T05:55:18.760Z,29.00
2018-12-16T05:57:45.830Z,29.00
2018-12-16T06:00:12.851Z,29.00
2018-12-16T06:02:39.989Z,29.10
2018-12-16T06:05:07.190Z,28.80
2018-12-16T06:07:34.302Z,29.00
2018-12-16T06:10:01.330Z,28.80
2018-12-16T06:12:28.386Z,29.00
2018-12-16T06:14:55.405Z,28.40
2018-12-16T06:17:22.444Z,28.80
2018-12-16T06:19:49.530Z,28.80
2018-12-16T06:22:16.536Z,28.60
2018-12-16T06:24:43.576Z,28.90
2018-12-16T06:27:10.676Z,28.80
2018-12-16T06:29:38.460Z,28.70
2018-12-16T06:32:05.537Z,28.70
2018-12-16T06:34:32.629Z,28.80
2018-12-16T06:36:59.657Z,28.80
2018-12-16T06:39:26.835Z,28.80
2018-12-16T06:41:55.264Z,29.00
2018-12-16T06:44:22.584Z,29.00
2018-12-16T06:46:49.674Z,29.20
2018-12-16T06:49:16.700Z,29.30
2018-12-16T06:51:43.710Z,29.40
2018-12-16T06:54:10.858Z,29.20
2018-12-16T06:56:37.892Z,29.40
2018-12-16T06:59:04.901Z,29.50
2018-12-16T07:01:32.036Z,29.40
2018-12-16T07:03:59.075Z,33.30
2018-12-16T07:06:26.103Z,38.20
2018-12-16T07:08:53.154Z,34.00
2018-12-16T07:11:20.186Z,33.50
2018-12-16T07:13:47.233Z,35.40
2018-12-16T07:16:14.392Z,34.00
2018-12-16T07:18:41.428Z,36.10
2018-12-16T07:21:08.454Z,36.20
2018-12-16T07:23:35.569Z,35.10
2018-12-16T07:26:02.653Z,33.90
2018-12-16T07:28:29.845Z,33.60
2018-12-16T07:30:56.993Z,32.40
2018-12-16T07:33:24.064Z,32.00
2018-12-16T07:35:51.167Z,31.70
2018-12-16T07:38:18.236Z,31.40
2018-12-16T07:40:45.290Z,31.20
2018-12-16T07:43:12.425Z,31.40
2018-12-16T07:45:39.629Z,31.70
2018-12-16T07:48:06.709Z,31.10
2018-12-16T07:50:33.855Z,30.70
2018-12-16T07:53:00.929Z,30.60
2018-12-16T07:55:28.084Z,30.40
2018-12-16T07:57:55.207Z,30.40
2018-12-16T08:00:22.224Z,30.40
2018-12-16T08:02:49.223Z,30.30
2018-12-16T08:05:16.392Z,30.20
2018-12-16T08:07:43.534Z,30.50
2018-12-16T08:10:10.585Z,30.30
2018-12-16T08:12:37.723Z,30.30
2018-12-16T08:15:05.058Z,30.20
2018-12-16T08:17:32.121Z,30.40
2018-12-16T08:19:59.166Z,30.30
2018-12-16T08:22:26.323Z,30.40
2018-12-16T08:24:53.408Z,30.70
2018-12-16T08:27:20.504Z,30.60
2018-12-16T08:29:47.518Z,30.30
2018-12-16T08:32:14.594Z,29.90
2018-12-16T08:34:41.622Z,29.60
2018-12-16T08:37:08.706Z,28.90
2018-12-16T08:39:35.772Z,29.10
2018-12-16T08:42:02.879Z,28.60
2018-12-16T08:44:29.935Z,28.20
2018-12-16T08:46:57.016Z,28.70
2018-12-16T08:49:24.243Z,28.20
2018-12-16T08:51:51.281Z,28.20
2018-12-16T08:54:18.315Z,28.10
2018-12-16T08:56:45.366Z,28.10
2018-12-16T08:59:12.367Z,28.10
2018-12-16T09:01:39.442Z,28.10
2018-12-16T09:04:06.695Z,28.10
2018-12-16T09:06:33.729Z,28.20
2018-12-16T09:09:01.176Z,28.10
2018-12-16T09:11:28.282Z,28.10
2018-12-16T09:13:55.305Z,28.10
2018-12-16T09:16:22.359Z,28.10
2018-12-16T09:18:49.383Z,28.10
2018-12-16T09:21:16.450Z,28.10
2018-12-16T09:23:43.527Z,28.10
2018-12-16T09:26:10.540Z,28.70
2018-12-16T09:28:37.725Z,28.10
2018-12-16T09:31:04.733Z,28.10
2018-12-16T09:33:31.816Z,28.10
2018-12-16T09:35:58.971Z,28.10
2018-12-16T09:38:25.989Z,28.10
2018-12-16T09:40:53.016Z,28.10
2018-12-16T09:43:20.103Z,28.60
2018-12-16T09:45:49.569Z,28.10
2018-12-16T09:48:16.245Z,28.10
2018-12-16T09:50:43.568Z,28.10
2018-12-16T09:53:10.599Z,28.10
2018-12-16T09:55:37.599Z,28.10
2018-12-16T09:58:04.759Z,28.10
2018-12-16T10:00:31.780Z,28.00
2018-12-16T10:02:58.821Z,28.00
2018-12-16T10:05:25.985Z,28.00
2018-12-16T10:07:53.012Z,28.00
2018-12-16T10:10:20.099Z,28.00
2018-12-16T10:12:47.157Z,28.00
2018-12-16T10:15:14.270Z,28.00
2018-12-16T10:17:41.311Z,28.10
2018-12-16T10:20:08.745Z,28.00
2018-12-16T10:22:35.829Z,28.10
2018-12-16T10:25:03.208Z,28.00
2018-12-16T10:27:30.341Z,28.00
2018-12-16T10:29:57.376Z,28.00
2018-12-16T10:32:24.423Z,28.00
2018-12-16T10:34:51.568Z,28.00
2018-12-16T10:37:18.568Z,28.00
2018-12-16T10:39:45.688Z,28.00
2018-12-16T10:42:12.696Z,28.00
2018-12-16T10:44:39.701Z,28.00
2018-12-16T10:47:06.831Z,28.00
2018-12-16T10:49:33.856Z,28.00
2018-12-16T10:52:00.895Z,28.00
2018-12-16T10:54:28.071Z,28.00
2018-12-16T10:56:55.093Z,28.10
2018-12-16T10:59:22.162Z,28.00
2018-12-16T11:01:49.231Z,28.00
2018-12-16T11:04:16.235Z,28.00
2018-12-16T11:06:43.276Z,28.00
2018-12-16T11:09:10.440Z,28.60
2018-12-16T11:11:37.460Z,28.00
2018-12-16T11:14:04.556Z,28.10
2018-12-16T11:16:31.602Z,27.90
2018-12-16T11:18:58.600Z,28.00
2018-12-16T11:21:25.686Z,27.90
2018-12-16T11:23:54.026Z,28.00
2018-12-16T11:26:21.234Z,27.90
2018-12-16T11:28:48.254Z,27.90
2018-12-16T11:31:15.411Z,27.90
2018-12-16T11:33:42.414Z,28.60
2018-12-16T11:36:10.430Z,28.00
2018-12-16T11:38:37.479Z,28.30
2018-12-16T11:41:04.519Z,27.90
2018-12-16T11:43:31.573Z,27.90
2018-12-16T11:45:58.630Z,27.90
2018-12-16T11:48:25.648Z,28.00
2018-12-16T11:50:52.679Z,27.90
2018-12-16T11:53:19.748Z,27.90
2018-12-16T11:55:46.834Z,28.00
2018-12-16T11:58:13.860Z,27.90
2018-12-16T12:00:40.923Z,27.90
2018-12-16T12:03:07.936Z,28.00
2018-12-16T12:05:34.997Z,27.90
2018-12-16T12:08:02.049Z,27.90
2018-12-16T12:10:29.077Z,27.90
2018-12-16T12:12:56.124Z,27.90
2018-12-16T12:15:23.206Z,27.50
2018-12-16T12:17:50.213Z,27.90
2018-12-16T12:20:17.285Z,27.90
2018-12-16T12:22:44.430Z,27.90
2018-12-16T12:25:11.463Z,27.90
2018-12-16T12:27:38.550Z,27.90
2018-12-16T12:30:06.192Z,27.90
2018-12-16T12:32:33.198Z,27.90
2018-12-16T12:35:00.232Z,27.90
2018-12-16T12:37:27.298Z,27.90
2018-12-16T12:39:54.389Z,27.90
2018-12-16T12:42:21.415Z,27.90
2018-12-16T12:44:48.478Z,27.90
2018-12-16T12:47:15.481Z,28.00
2018-12-16T12:49:45.208Z,27.90
2018-12-16T12:52:11.609Z,27.90
2018-12-16T12:54:38.653Z,27.90
2018-12-16T12:57:05.763Z,27.90
2018-12-16T12:59:32.821Z,27.90
2018-12-16T13:01:59.837Z,27.90
2018-12-16T13:04:26.876Z,27.90
2018-12-16T13:06:54.045Z,27.90
2018-12-16T13:09:21.082Z,27.90
2018-12-16T13:11:48.266Z,27.90
2018-12-16T13:14:15.264Z,27.90
2018-12-16T13:16:42.363Z,28.40
2018-12-16T13:19:09.496Z,27.90
2018-12-16T13:21:36.526Z,27.90
2018-12-16T13:24:03.682Z,27.90
2018-12-16T13:26:30.766Z,27.90
2018-12-16T13:28:57.772Z,27.90
2018-12-16T13:31:24.936Z,27.90
2018-12-16T13:33:51.986Z,27.90
2018-12-16T13:36:19.017Z,27.90
2018-12-16T13:38:46.094Z,27.90
2018-12-16T13:41:13.113Z,27.90
2018-12-16T13:43:40.314Z,27.90
2018-12-16T13:46:07.437Z,27.90
2018-12-16T13:48:34.498Z,27.90
2018-12-16T13:51:01.629Z,27.80
2018-12-16T13:53:28.670Z,27.80
2018-12-16T13:55:55.738Z,27.80
2018-12-16T13:58:22.854Z,27.90
2018-12-16T14:00:49.912Z,27.90
2018-12-16T14:03:16.919Z,27.90
2018-12-16T14:05:46.824Z,27.90
2018-12-16T14:08:13.214Z,27.90
2018-12-16T14:10:40.240Z,27.90
2018-12-16T14:13:07.294Z,27.90
2018-12-16T14:15:34.318Z,27.90
2018-12-16T14:18:01.376Z,27.90
2018-12-16T14:20:28.425Z,27.80
2018-12-16T14:22:55.608Z,28.00
2018-12-16T14:25:22.619Z,27.80
2018-12-16T14:27:49.788Z,27.90
2018-12-16T14:30:16.841Z,27.90
2018-12-16T14:32:43.987Z,27.90
2018-12-16T14:35:11.372Z,27.80
2018-12-16T14:37:38.496Z,27.90
2018-12-16T14:40:06.716Z,27.80
2018-12-16T14:42:33.830Z,27.80
2018-12-16T14:45:00.850Z,27.80
2018-12-16T14:47:28.001Z,27.10
2018-12-16T14:49:55.162Z,27.30
2018-12-16T14:52:22.211Z,27.10
2018-12-16T14:54:49.237Z,27.30
2018-12-16T14:57:16.389Z,27.50
2018-12-16T14:59:43.465Z,27.10
2018-12-16T15:02:10.493Z,27.00
2018-12-16T15:04:37.574Z,27.10
2018-12-16T15:07:04.581Z,26.70
2018-12-16T15:09:31.638Z,26.90
2018-12-16T15:11:58.804Z,26.80
2018-12-16T15:14:25.931Z,26.60
2018-12-16T15:16:52.993Z,26.50
2018-12-16T15:19:20.056Z,26.50
2018-12-16T15:21:47.072Z,26.50
2018-12-16T15:24:14.154Z,26.50
2018-12-16T15:26:41.302Z,26.40
2018-12-16T15:29:08.456Z,26.40
2018-12-16T15:31:35.564Z,26.50
2018-12-16T15:34:02.643Z,26.50
2018-12-16T15:36:29.765Z,26.40
2018-12-16T15:38:56.824Z,26.50
2018-12-16T15:41:23.816Z,26.40
2018-12-16T15:43:50.914Z,26.40
2018-12-16T15:46:17.986Z,26.30
2018-12-16T15:48:45.014Z,26.40
2018-12-16T15:51:12.100Z,26.40
2018-12-16T15:53:39.338Z,26.40
2018-12-16T15:56:09.504Z,26.30
2018-12-16T15:58:35.417Z,26.40
2018-12-16T16:01:02.455Z,26.40
2018-12-16T16:03:29.542Z,26.40
2018-12-16T16:05:56.593Z,26.40
2018-12-16T16:08:23.642Z,26.30
2018-12-16T16:10:50.823Z,26.40
2018-12-16T16:13:17.826Z,26.40
2018-12-16T16:15:44.920Z,26.30
2018-12-16T16:18:11.998Z,26.40
2018-12-16T16:20:39.214Z,26.40
2018-12-16T16:23:06.949Z,26.30
2018-12-16T16:25:34.104Z,25.70
2018-12-16T16:28:01.181Z,25.40
2018-12-16T16:30:28.211Z,25.60
2018-12-16T16:32:55.214Z,25.50
2018-12-16T16:35:22.321Z,25.60
2018-12-16T16:37:49.343Z,25.70
2018-12-16T16:40:16.494Z,25.90
2018-12-16T16:42:43.496Z,26.10
2018-12-16T16:45:10.514Z,27.50
2018-12-16T16:47:37.601Z,28.40
2018-12-16T16:50:04.927Z,33.80
2018-12-16T16:52:31.946Z,39.80
2018-12-16T16:54:58.994Z,41.90
2018-12-16T16:57:26.037Z,43.20
2018-12-16T16:59:53.094Z,42.50
2018-12-16T17:02:20.265Z,40.70
2018-12-16T17:04:47.505Z,51.60
2018-12-16T17:07:14.502Z,44.50
2018-12-16T17:09:41.515Z,43.70
2018-12-16T17:12:08.591Z,41.70
2018-12-16T17:14:35.613Z,40.20
2018-12-16T17:17:02.682Z,40.20
2018-12-16T17:19:29.745Z,40.20
2018-12-16T17:21:58.360Z,40.10
2018-12-16T17:24:25.686Z,40.10
2018-12-16T17:26:52.938Z,38.20
2018-12-16T17:29:19.941Z,34.80
2018-12-16T17:31:47.050Z,30.90
2018-12-16T17:34:14.097Z,30.90
2018-12-16T17:36:41.137Z,30.40
2018-12-16T17:39:08.287Z,30.00
2018-12-16T17:41:35.303Z,29.90
2018-12-16T17:44:02.404Z,28.70
2018-12-16T17:46:29.519Z,28.50
2018-12-16T17:48:56.563Z,28.50
2018-12-16T17:51:23.639Z,28.50
2018-12-16T17:53:50.832Z,27.50
2018-12-16T17:56:17.841Z,27.30
2018-12-16T17:58:44.877Z,26.70
2018-12-16T18:01:12.004Z,26.10
2018-12-16T18:03:39.087Z,25.90
2018-12-16T18:06:06.103Z,24.60
2018-12-16T18:08:33.150Z,25.50
2018-12-16T18:11:00.223Z,25.80
2018-12-16T18:13:27.269Z,25.90
2018-12-16T18:15:54.282Z,25.70
2018-12-16T18:18:21.363Z,25.50
2018-12-16T18:20:48.387Z,25.30
2018-12-16T18:23:15.386Z,25.60
2018-12-16T18:25:42.521Z,25.80
2018-12-16T18:28:09.544Z,26.10
2018-12-16T18:30:36.577Z,26.40
2018-12-16T18:33:04.132Z,26.80
2018-12-16T18:35:31.134Z,27.00
2018-12-16T18:37:58.353Z,27.40
2018-12-16T18:40:26.053Z,27.70
2018-12-16T18:42:53.120Z,28.30
2018-12-16T18:45:20.174Z,28.40
2018-12-16T18:47:47.204Z,28.40
2018-12-16T18:50:14.295Z,28.40
2018-12-16T18:52:41.349Z,28.40
2018-12-16T18:55:08.403Z,28.50
2018-12-16T18:57:35.427Z,28.50
2018-12-16T19:00:02.547Z,28.50
2018-12-16T19:02:29.665Z,28.50
2018-12-16T19:04:56.719Z,28.50
2018-12-16T19:07:23.723Z,28.50
2018-12-16T19:09:50.826Z,28.50
2018-12-16T19:12:17.934Z,28.50
2018-12-16T19:14:45.496Z,28.50
2018-12-16T19:17:12.665Z,28.50
2018-12-16T19:19:39.798Z,28.50
2018-12-16T19:22:06.855Z,28.50
2018-12-16T19:24:34.084Z,28.50
2018-12-16T19:27:01.103Z,28.50
2018-12-16T19:29:28.217Z,28.50
2018-12-16T19:31:55.215Z,28.50
2018-12-16T19:34:22.307Z,28.50
2018-12-16T19:36:49.436Z,28.40
2018-12-16T19:39:16.581Z,28.40
2018-12-16T19:41:43.645Z,28.40
2018-12-16T19:44:11.835Z,28.60
2018-12-16T19:46:38.959Z,29.00
2018-12-16T19:49:06.044Z,28.90
2018-12-16T19:51:33.073Z,29.20
2018-12-16T19:54:00.551Z,29.20
2018-12-16T19:56:27.619Z,29.40
2018-12-16T19:58:56.135Z,29.50
2018-12-16T20:01:23.379Z,29.50
2018-12-16T20:03:56.619Z,29.50
2018-12-16T20:06:30.072Z,30.00
2018-12-16T20:08:57.065Z,29.50
2018-12-16T20:11:24.549Z,29.60
2018-12-16T20:13:52.034Z,29.60
2018-12-16T20:16:19.295Z,29.70
2018-12-16T20:18:46.474Z,29.70
2018-12-16T20:21:13.956Z,29.80
2018-12-16T20:23:41.015Z,29.80
2018-12-16T20:26:08.815Z,29.80
2018-12-16T20:28:36.305Z,29.80
2018-12-16T20:31:03.943Z,29.90
2018-12-16T20:33:31.734Z,29.90
2018-12-16T20:35:59.675Z,29.90
2018-12-16T20:38:27.171Z,29.80
2018-12-16T20:40:55.735Z,29.90
2018-12-16T20:43:24.733Z,30.00
2018-12-16T20:45:52.722Z,30.00
2018-12-16T20:48:20.201Z,30.00
2018-12-16T20:50:48.342Z,30.00
2018-12-16T20:53:16.361Z,30.00
2018-12-16T20:55:44.472Z,30.00
2018-12-16T20:58:12.309Z,30.10
2018-12-16T21:00:40.844Z,30.10
2018-12-16T21:03:09.147Z,30.00
2018-12-16T21:05:37.848Z,30.10
2018-12-16T21:08:05.634Z,30.30
2018-12-16T21:10:33.247Z,30.40
2018-12-16T21:13:06.741Z,29.90
2018-12-16T21:15:40.531Z,30.40
2018-12-16T21:18:14.199Z,30.50
2018-12-16T21:20:42.637Z,30.50
2018-12-16T21:23:09.913Z,30.60
2018-12-16T21:25:36.985Z,30.50
2018-12-16T21:28:04.024Z,30.50
2018-12-16T21:30:31.143Z,30.50
2018-12-16T21:32:58.219Z,30.60
2018-12-16T21:35:25.348Z,30.60
2018-12-16T21:37:52.345Z,30.60
2018-12-16T21:40:19.516Z,30.70
2018-12-16T21:42:46.528Z,30.70
2018-12-16T21:45:13.582Z,30.90
2018-12-16T21:47:40.610Z,31.50
2018-12-16T21:50:07.623Z,30.80
2018-12-16T21:52:34.661Z,30.80
2018-12-16T21:55:01.681Z,31.10
2018-12-16T21:57:33.013Z,31.10
2018-12-16T21:59:57.839Z,30.90
2018-12-16T22:02:24.901Z,31.00
2018-12-16T22:04:51.933Z,31.10
2018-12-16T22:07:18.985Z,31.00
2018-12-16T22:09:46.025Z,31.00
2018-12-16T22:12:13.035Z,30.90
2018-12-16T22:14:40.140Z,31.10
2018-12-16T22:17:07.175Z,30.90
2018-12-16T22:19:34.252Z,30.80
2018-12-16T22:22:01.331Z,31.50
2018-12-16T22:24:28.334Z,30.80
2018-12-16T22:26:55.382Z,30.70
2018-12-16T22:29:22.481Z,30.70
2018-12-16T22:31:49.502Z,30.70
2018-12-16T22:34:16.642Z,30.60
2018-12-16T22:36:45.471Z,30.70
2018-12-16T22:39:12.576Z,30.70
2018-12-16T22:41:39.626Z,30.70
2018-12-16T22:44:06.630Z,30.70
2018-12-16T22:46:33.921Z,30.60
2018-12-16T22:49:01.044Z,31.40
2018-12-16T22:51:28.082Z,30.60
2018-12-16T22:53:55.090Z,30.60
2018-12-16T22:56:22.140Z,30.70
2018-12-16T22:58:54.278Z,30.50
2018-12-16T23:01:18.268Z,30.70
2018-12-16T23:03:45.342Z,30.60
2018-12-16T23:06:12.352Z,30.60
2018-12-16T23:08:39.496Z,30.70
2018-12-16T23:11:06.978Z,30.70
2018-12-16T23:13:34.484Z,30.60
2018-12-16T23:16:02.016Z,28.10
2018-12-16T23:18:29.592Z,27.90
2018-12-16T23:20:57.177Z,27.70
2018-12-16T23:23:24.658Z,27.50
2018-12-16T23:25:51.879Z,27.40
2018-12-16T23:28:19.153Z,27.30
2018-12-16T23:30:46.329Z,27.20
2018-12-16T23:33:13.516Z,27.10
2018-12-16T23:35:41.081Z,26.90
2018-12-16T23:38:08.603Z,26.90
2018-12-16T23:40:36.061Z,26.80
2018-12-16T23:43:03.135Z,26.80
2018-12-16T23:45:30.653Z,26.70
2018-12-16T23:47:57.669Z,26.70
2018-12-16T23:50:24.735Z,26.70
2018-12-16T23:52:51.772Z,26.60
2018-12-16T23:55:18.925Z,26.60
2018-12-16T23:57:45.957Z,26.60
